• Join FlightAware (Why Join?)
  • Login
  • US Flag 
02:49PM EDT


 

Airport Tracker/Info


-or-


 

Live Flight TrackerFlight Track Log ✈ PDC2807 ✈ 22-Sep-2013 ✈ ZYHB / HRB - ZYMD / MDG

Flight Track Log - Related Links

Times and Time Zones

All times are in EDT time to prevent confusion due to time zone crossing. See the PDC2807 flight status page for this flight to view local times or setup timezone preferences in your user account.

Time Position Orientation Groundspeed Altitude Reporting Facility
EDT Latitude Longitude Course Direction KTS MPH feet Rate Location/Type
11:59PM 45.4113 126.9241 114° Southeast  Level Estimated
12:00AM 45.3899 126.9912 114° Southeast  Level Estimated
12:01AM 45.3684 127.0583 114° Southeast  Level Estimated
12:02AM 45.3469 127.1253 115° Southeast  Level Estimated
12:03AM 45.3254 127.1923 115° Southeast  Level Estimated
12:04AM 45.3038 127.2591 115° Southeast  Level Estimated
12:05AM 45.2822 127.3260 115° Southeast  Level Estimated
12:06AM 45.2605 127.3928 115° Southeast  Level Estimated
12:07AM 45.2388 127.4595 115° Southeast  Level Estimated
12:08AM 45.2171 127.5262 115° Southeast  Level Estimated
12:09AM 45.1953 127.5929 115° Southeast  Level Estimated
12:10AM 45.1735 127.6595 115° Southeast  Level Estimated
12:11AM 45.1516 127.7260 115° Southeast  Level Estimated
12:12AM 45.1297 127.7925 115° Southeast  Level Estimated
12:13AM 45.1078 127.8589 115° Southeast  Level Estimated
12:14AM 45.0858 127.9253 115° Southeast  Level Estimated
12:15AM 45.0638 127.9917 115° Southeast  Level Estimated
12:16AM 45.0418 128.0580 115° Southeast  Level Estimated
12:17AM 45.0197 128.1242 115° Southeast  Level Estimated
12:18AM 44.9976 128.1904 115° Southeast  Level Estimated
12:19AM 44.9754 128.2565 115° Southeast  Level Estimated
12:20AM 44.9532 128.3226 115° Southeast  Level Estimated
12:21AM 44.9310 128.3886 115° Southeast  Level Estimated
12:22AM 44.9087 128.4546 115° Southeast  Level Estimated
12:23AM 44.8864 128.5205 116° Southeast  Level Estimated
12:24AM 44.8641 128.5864 116° Southeast  Level Estimated
12:25AM 44.8417 128.6522 116° Southeast  Level Estimated
12:26AM 44.8192 128.7180 116° Southeast  Level Estimated
12:27AM 44.7968 128.7837 116° Southeast  Level Estimated
12:28AM 44.7743 128.8494 116° Southeast  Level Estimated
12:29AM 44.7517 128.9150 116° Southeast  Level Estimated
12:30AM 44.7291 128.9806 116° Southeast  Level Estimated
12:31AM 44.7065 129.0461 116° Southeast  Level Estimated
12:32AM 44.6839 129.1116 116° Southeast  Level Estimated
12:33AM 44.6612 129.1770 116° Southeast  Level Estimated
12:34AM 44.6385 129.2424 116° Southeast  Level Estimated
12:35AM 44.6157 129.3077 116° Southeast  Level Estimated
12:36AM 44.5929 129.3729 116° Southeast  Level Estimated
12:37AM 44.5701 129.4381 116° Southeast  Level Estimated
12:38AM 44.5472 129.5033 116° Southeast  Level Estimated
12:39AM 44.5243 129.5684 116° Southeast  Level Estimated
12:40AM 44.5241 129.5690 116° Southeast  Level Estimated
12:41AM 44.5241 129.5690 35° Northeast  Level Estimated
12:42AM 44.5241 129.5690 35° Northeast  Level Estimated
12:43AM 44.5241 129.5690 35° Northeast  Level Estimated
12:44AM 44.5241 129.5690 35° Northeast  Level Estimated
12:45AM 44.5241 129.5690 35° Northeast  Level Estimated
12:46AM 44.5241 129.5690 35° Northeast  Level Estimated
12:47AM 44.5241 129.5690 35° Northeast  Level Estimated
12:48AM 44.5241 129.5690 35° Northeast  Level Estimated
12:49AM 44.5241 129.5690 35° Northeast  Level Estimated
12:50AM 44.5241 129.5690 35° Northeast  Level Estimated
12:51AM 44.5241 129.5690 35° Northeast  Level Estimated
12:52AM 44.5241 129.5690 35° Northeast  Level Estimated
12:53AM 44.5241 129.5690 35° Northeast  Level Estimated
12:54AM 44.5241 129.5690 35° Northeast  Level Estimated